Goodhue, MN (55027)

10:21 AM CST on December 18, 2014 (GMT -0600)
Covered Bridge Park | Change Station
CLOSE
Current Station
Personal Weather Station
Location: Zumbrota, MN
Elevation: 979 ft
Nearby Weather Stations

Elev 979 ft 44.30 °N, 92.68 °W | Updated 6 seconds ago

Overcast
Overcast
20.0 °F
Feels Like 20 °F
N
0.9
Wind Variable Wind from SW
Gusts 2.3 mph

Today
High -- | Low -- °F
--% Chance of Precip.
Yesterday
High -- | Low -- °F
Precip. -- in
7:41 AM 4:32 PM
Waning Crescent, 13% visible
Pressure 30.31 in
Visibility 7.0 miles
Clouds Overcast 1600 ft
Windchill 20 °F
Dew Point 16 °F
Humidity 85%
Rainfall 0.00 in
Snow Depth Not available.
UV 0.7 out of 12
Pollen .10 out of 12
Air Quality Not available.
Flu Activity Not available.
METAR KRGK 181611Z AUTO 00000KT 7SM -SN OVC016 M07/M09 A3031 RMK AO2

More Conditions Fewer Conditions

Pressure 30.31 in
Visibility 7.0 miles
Clouds Overcast 1600 ft
Windchill 20 °F
Dew Point 16 °F
Humidity 85%
Rainfall 0.00 in
Snow Depth Not available.
UV 0.7 out of 12
Pollen .10 out of 12
Air Quality Not available.
Flu Activity Not available.
METAR KRGK 181611Z AUTO 00000KT 7SM -SN OVC016 M07/M09 A3031 RMK AO2

More Conditions Fewer Conditions

10-Day Weather Forecast

Almanac

Astronomy

Dec. 18, 2014 Rise Set
Actual Time
Civil Twilight
Nautical Twilight
Astronomical Twilight
Moon
Length of Visible Light
Length of Day
Tomorrow will be .
, % of the Moon is Illuminated

Today's Extremes

State Highs State Lows

Community

WunderPhotos

Upload Photos

1,778,955 photos uploaded!

WunderBlogs® & News

Nearby

Air Quality

  Air Quality AQ Index Pollutant
Not available.

Snow Depth

Station Depth Elevation

Earthquake Activity

City Distance Mag. Time & Date
Minimum magnitude displayed is 2.5.

Coastal Water Temperatures

Place Temperature

Nearby Weather Stations